Pearl Of Scandinavia — OWFU2 — position and weather

sailwx.info

Track history (hours):
 
Tides and Currents Weather Stations Pressure Air Temp Water Temp Dewpoint Dewpoint Depression Visibility Wind Speed Wind Dir Waves Ship Positions

Pearl Of Scandinavia

Last reported at 2018-Feb-23 22:00 UTC. Time now 2018-Feb-23 22:09 UTC.
Position N 57°19' E 011°46'.

Length 176.4 m; beam 34 m; draft 6.215 m.

Type: Ship. MMSI: 219945000.

Date/timePositionNaut miles runAvg speedWind from/ knotsBaromVisibWave heightAir tempDewpointWater temp
2018-Feb-23 22:00N 57°19' E 011°46'816.7
2018-Feb-23 21:30N 57°12' E 011°54'917.2
2018-Feb-23 21:00N 57°04' E 012°00'4916.5
2018-Feb-23 18:02N 56°17' E 012°24'016.8
2018-Feb-23 18:00N 56°16' E 012°24'816.3
2018-Feb-23 17:31N 56°09' E 012°31'816.5
2018-Feb-23 17:01N 56°03' E 012°40'815.9
2018-Feb-23 16:31N 55°55' E 012°45'815.7
2018-Feb-23 16:01N 55°47' E 012°43'612.7
2018-Feb-23 15:30N 55°42' E 012°36'0 0.2
2018-Feb-23 14:59N 55°42' E 012°36'0 0.0
2018-Feb-23 14:29N 55°42' E 012°36'0 0.0
2018-Feb-23 13:59N 55°42' E 012°36'0 0.0
2018-Feb-23 13:29N 55°42' E 012°36'0 0.0
2018-Feb-23 12:59N 55°42' E 012°36'0 0.0
2018-Feb-23 12:29N 55°42' E 012°36'0 0.0
2018-Feb-23 11:59N 55°42' E 012°36'0 0.0
2018-Feb-23 11:29N 55°42' E 012°36'0 0.0
2018-Feb-23 10:59N 55°42' E 012°36'0 0.0
2018-Feb-23 10:29N 55°42' E 012°36'0 0.0
2018-Feb-23 09:59N 55°42' E 012°36'0 0.0
2018-Feb-23 09:29N 55°42' E 012°36'0 0.0
2018-Feb-23 08:59N 55°42' E 012°36'0 0.6
2018-Feb-23 08:30N 55°42' E 012°36'510.6
2018-Feb-23 08:00N 55°47' E 012°41'612.9
2018-Feb-23 07:30N 55°53' E 012°40'713.3
2018-Feb-23 07:01N 55°60' E 012°40'713.4
2018-Feb-23 06:31N 56°06' E 012°34'714.2
2018-Feb-23 06:01N 56°12' E 012°28'714.9
2018-Feb-23 05:31N 56°19' E 012°23'5816.8
2018-Feb-23 02:05N 57°14' E 011°52'117.0
2018-Feb-23 02:01N 57°15' E 011°51'917.0
2018-Feb-23 01:30N 57°22' E 011°42'816.6
2018-Feb-23 01:01N 57°29' E 011°34'816.7
2018-Feb-23 00:31N 57°36' E 011°28'816.6
2018-Feb-23 00:01N 57°44' E 011°21'816.9
2018-Feb-22 23:31N 57°52' E 011°16'816.3
2018-Feb-22 23:00N 57°60' E 011°11'816.3
2018-Feb-22 22:31N 58°07' E 011°07'816.3
2018-Feb-22 22:01N 58°15' E 011°03'816.1
2018-Feb-22 21:30N 58°23' E 010°59'816.3
2018-Feb-22 21:01N 58°31' E 010°54'816.1
2018-Feb-22 20:31N 58°38' E 010°49'816.1
2018-Feb-22 20:01N 58°46' E 010°46'917.0
2018-Feb-22 19:30N 58°55' E 010°43'816.9
2018-Feb-22 19:01N 59°03' E 010°41'816.7
2018-Feb-22 18:31N 59°11' E 010°38'817.0
2018-Feb-22 18:01N 59°20' E 010°35'816.7
2018-Feb-22 17:31N 59°28' E 010°34'816.7
2018-Feb-22 17:01N 59°36' E 010°38'714.6
2018-Feb-22 16:30N 59°43' E 010°35'714.2
2018-Feb-22 16:00N 59°50' E 010°35'612.6
2018-Feb-22 15:31N 59°54' E 010°45'0 0.2
2018-Feb-22 15:01N 59°54' E 010°45'0 0.0
2018-Feb-22 14:30N 59°54' E 010°45'0 0.0
2018-Feb-22 14:00N 59°54' E 010°45'0 0.0
2018-Feb-22 13:30N 59°54' E 010°45'0 0.0
2018-Feb-22 13:00N 59°54' E 010°45'0 0.0
2018-Feb-22 12:30N 59°54' E 010°45'0 0.0
2018-Feb-22 12:00N 59°54' E 010°45'0 0.0
2018-Feb-22 11:30N 59°54' E 010°45'0 0.0
2018-Feb-22 10:59N 59°54' E 010°45'0 0.0
2018-Feb-22 10:30N 59°54' E 010°45'0 0.0
2018-Feb-22 10:00N 59°54' E 010°45'0 0.0
2018-Feb-22 09:30N 59°54' E 010°45'0 0.0
2018-Feb-22 09:00N 59°54' E 010°45'0 0.5
2018-Feb-22 08:30N 59°54' E 010°44'714.1
2018-Feb-22 08:00N 59°49' E 010°35'815.4
2018-Feb-22 07:30N 59°41' E 010°36'713.4
2018-Feb-22 07:00N 59°35' E 010°38'815.1
2018-Feb-22 06:30N 59°27' E 010°34'815.2
2018-Feb-22 06:00N 59°20' E 010°36'815.2
2018-Feb-22 05:30N 59°12' E 010°39'815.3
2018-Feb-22 05:00N 59°05' E 010°41'815.4
2018-Feb-22 04:30N 58°57' E 010°42'815.2
2018-Feb-22 04:00N 58°49' E 010°44'2615.4
2018-Feb-22 02:19N 58°24' E 010°57'1016.3
2018-Feb-22 01:40N 58°14' E 011°03'316.3
2018-Feb-22 01:30N 58°12' E 011°05'816.4
2018-Feb-22 01:00N 58°04' E 011°10'816.6
2018-Feb-22 00:30N 57°56' E 011°15'816.5
2018-Feb-22 00:00N 57°48' E 011°20'816.3
2018-Feb-21 23:30N 57°41' E 011°25'816.0
2018-Feb-21 23:00N 57°33' E 011°31'816.2
2018-Feb-21 22:30N 57°26' E 011°38'816.4
2018-Feb-21 22:00N 57°19' E 011°46'816.4
2018-Feb-21 21:30N 57°12' E 011°54'816.3
2018-Feb-21 21:00N 57°05' E 011°59'5516.4
2018-Feb-21 17:40N 56°12' E 012°28'317.1
2018-Feb-21 17:30N 56°10' E 012°30'917.4
2018-Feb-21 17:00N 56°03' E 012°39'816.4
2018-Feb-21 16:30N 55°55' E 012°44'816.2
2018-Feb-21 16:00N 55°47' E 012°42'610.6
2018-Feb-21 15:25N 55°42' E 012°36'0 0.0
2018-Feb-21 15:00N 55°42' E 012°36'0 0.0
2018-Feb-21 14:30N 55°42' E 012°36'0 0.0
2018-Feb-21 14:00N 55°42' E 012°36'0 0.0
2018-Feb-21 13:30N 55°42' E 012°36'0 0.0
2018-Feb-21 13:00N 55°42' E 012°36'0 0.0
2018-Feb-21 12:30N 55°42' E 012°36'0 0.0
2018-Feb-21 12:00N 55°42' E 012°36'0 0.0
2018-Feb-21 11:30N 55°42' E 012°36'0 0.0
2018-Feb-21 11:00N 55°42' E 012°36'0 0.0
2018-Feb-21 10:30N 55°42' E 012°36'0 0.0
2018-Feb-21 10:00N 55°42' E 012°36'0 0.0
2018-Feb-21 09:30N 55°42' E 012°36'0 0.0
2018-Feb-21 09:00N 55°42' E 012°36'0 0.6
2018-Feb-21 08:31N 55°42' E 012°36'510.0
2018-Feb-21 08:00N 55°46' E 012°41'612.3
2018-Feb-21 07:30N 55°53' E 012°40'612.4
2018-Feb-21 07:00N 55°59' E 012°40'713.2
2018-Feb-21 06:30N 56°05' E 012°36'714.1
2018-Feb-21 06:00N 56°11' E 012°28'714.6
2018-Feb-21 05:30N 56°17' E 012°23'5816.7
2018-Feb-21 02:00N 57°13' E 011°52'815.9
2018-Feb-21 01:30N 57°20' E 011°44'816.0
2018-Feb-21 01:00N 57°26' E 011°36'816.7
2018-Feb-21 00:30N 57°34' E 011°29'917.4
2018-Feb-21 00:00N 57°42' E 011°23'816.8
2018-Feb-20 23:30N 57°50' E 011°17'816.2
2018-Feb-20 23:00N 57°57' E 011°12'816.1
2018-Feb-20 22:30N 58°05' E 011°08'816.0
2018-Feb-20 22:00N 58°13' E 011°04'816.0
2018-Feb-20 21:30N 58°21' E 010°59'816.2
2018-Feb-20 21:00N 58°28' E 010°55'816.3
2018-Feb-20 20:30N 58°36' E 010°51'816.7
2018-Feb-20 20:01N 58°44' E 010°47'917.1
2018-Feb-20 19:30N 58°53' E 010°44'917.4
2018-Feb-20 19:00N 59°01' E 010°41'917.2
2018-Feb-20 18:30N 59°10' E 010°38'917.3
2018-Feb-20 18:00N 59°18' E 010°36'917.2
2018-Feb-20 17:30N 59°27' E 010°33'816.9
2018-Feb-20 17:00N 59°35' E 010°38'815.3
2018-Feb-20 16:30N 59°42' E 010°36'815.3
2018-Feb-20 16:00N 59°50' E 010°35'612.7
2018-Feb-20 15:30N 59°54' E 010°45'0 0.2
2018-Feb-20 15:00N 59°54' E 010°45'0 0.0
2018-Feb-20 14:30N 59°54' E 010°45'0 0.0
2018-Feb-20 14:00N 59°54' E 010°45'0 0.0
2018-Feb-20 13:30N 59°54' E 010°45'0 0.0
2018-Feb-20 13:00N 59°54' E 010°45'0 0.0
2018-Feb-20 12:30N 59°54' E 010°45'0 0.0
2018-Feb-20 12:00N 59°54' E 010°45'0 0.0
2018-Feb-20 11:30N 59°54' E 010°45'0 0.0
2018-Feb-20 11:00N 59°54' E 010°45'0 0.0
2018-Feb-20 10:30N 59°54' E 010°45'0 0.0
2018-Feb-20 10:00N 59°54' E 010°45'0 0.0
2018-Feb-20 09:30N 59°54' E 010°45'0 0.0
2018-Feb-20 09:00N 59°54' E 010°45'0 0.4
2018-Feb-20 08:30N 59°54' E 010°44'713.8
2018-Feb-20 08:00N 59°49' E 010°35'714.9
2018-Feb-20 07:30N 59°42' E 010°36'713.7
2018-Feb-20 07:00N 59°35' E 010°38'815.5
2018-Feb-20 06:30N 59°27' E 010°34'815.7
2018-Feb-20 06:00N 59°20' E 010°36'815.5
2018-Feb-20 05:30N 59°12' E 010°39'815.3
2018-Feb-20 05:00N 59°04' E 010°41'815.5
2018-Feb-20 04:30N 58°57' E 010°42'815.2
2018-Feb-20 04:00N 58°49' E 010°44'714.8
2018-Feb-20 03:30N 58°42' E 010°45'815.6
2018-Feb-20 03:00N 58°34' E 010°50'816.2
2018-Feb-20 02:30N 58°27' E 010°55'916.5
2018-Feb-20 01:59N 58°18' E 011°00'816.1
2018-Feb-20 01:30N 58°11' E 011°05'816.3
2018-Feb-20 01:00N 58°03' E 011°10'816.5
2018-Feb-20 00:30N 57°56' E 011°15'816.3
2018-Feb-20 00:00N 57°48' E 011°20'816.2
2018-Feb-19 23:30N 57°40' E 011°26'816.1
2018-Feb-19 23:00N 57°33' E 011°31'815.7
2018-Feb-19 22:30N 57°26' E 011°38'815.9
2018-Feb-19 22:00N 57°19' E 011°46'816.4
2018-Feb-19 21:30N 57°12' E 011°54'816.1
2018-Feb-19 21:00N 57°05' E 011°59'5216.3
2018-Feb-19 17:47N 56°15' E 012°26'517.5
2018-Feb-19 17:30N 56°10' E 012°29'918.4
2018-Feb-19 17:00N 56°03' E 012°40'917.5
2018-Feb-19 16:30N 55°55' E 012°45'816.4
2018-Feb-19 16:00N 55°47' E 012°42'611.0
2018-Feb-19 15:31N 55°42' E 012°36'0 0.0
2018-Feb-19 15:00N 55°42' E 012°36'0 0.0
2018-Feb-19 14:30N 55°42' E 012°36'0 0.0
2018-Feb-19 14:00N 55°42' E 012°36'0 0.0
2018-Feb-19 13:30N 55°42' E 012°36'0 0.0
2018-Feb-19 13:00N 55°42' E 012°36'0 0.0
2018-Feb-19 12:30N 55°42' E 012°36'0 0.0
2018-Feb-19 12:00N 55°42' E 012°36'0 0.0
2018-Feb-19 11:30N 55°42' E 012°36'0 0.0
2018-Feb-19 11:00N 55°42' E 012°36'0 0.0
2018-Feb-19 10:30N 55°42' E 012°36'0 0.0
2018-Feb-19 10:00N 55°42' E 012°36'0 0.0
2018-Feb-19 09:30N 55°42' E 012°36'0 0.0
2018-Feb-19 09:00N 55°42' E 012°36'0 0.7
2018-Feb-19 08:30N 55°42' E 012°36'510.6
2018-Feb-19 08:00N 55°47' E 012°42'713.8
2018-Feb-19 07:30N 55°54' E 012°40'714.2
2018-Feb-19 07:00N 56°01' E 012°40'713.8
2018-Feb-19 06:30N 56°06' E 012°33'714.7
2018-Feb-19 06:00N 56°13' E 012°27'815.5
2018-Feb-19 05:30N 56°20' E 012°22'816.2
2018-Feb-19 04:59N 56°28' E 012°18'4616.7
2018-Feb-19 02:12N 57°13' E 011°53'316.4
2018-Feb-19 02:00N 57°15' E 011°51'816.6
2018-Feb-19 01:30N 57°23' E 011°43'817.0
2018-Feb-19 01:00N 57°30' E 011°36'816.8
2018-Feb-19 00:31N 57°37' E 011°28'816.7
2018-Feb-19 00:00N 57°45' E 011°21'816.7
2018-Feb-18 23:30N 57°53' E 011°15'816.8
2018-Feb-18 23:00N 58°01' E 011°11'816.2
2018-Feb-18 22:30N 58°08' E 011°06'816.2
2018-Feb-18 22:00N 58°16' E 011°02'816.4
2018-Feb-18 21:31N 58°24' E 010°57'815.1
2018-Feb-18 21:00N 58°31' E 010°53'816.1
2018-Feb-18 20:30N 58°39' E 010°49'816.4
2018-Feb-18 20:00N 58°47' E 010°45'917.3
2018-Feb-18 19:30N 58°56' E 010°43'917.2
2018-Feb-18 19:00N 59°04' E 010°40'917.1
2018-Feb-18 18:30N 59°12' E 010°37'917.1
2018-Feb-18 18:00N 59°21' E 010°35'816.6
2018-Feb-18 17:30N 59°29' E 010°34'816.3
2018-Feb-18 17:00N 59°37' E 010°37'815.0
2018-Feb-18 16:30N 59°44' E 010°33'816.1
2018-Feb-18 16:00N 59°52' E 010°38'4 8.0
2018-Feb-18 15:30N 59°54' E 010°45'0 0.0
2018-Feb-18 14:59N 59°54' E 010°45'0 0.0
2018-Feb-18 14:29N 59°54' E 010°45'0 0.0
2018-Feb-18 13:59N 59°54' E 010°45'0 0.0
2018-Feb-18 13:29N 59°54' E 010°45'0 0.0
2018-Feb-18 12:59N 59°54' E 010°45'0 0.0
2018-Feb-18 12:29N 59°54' E 010°45'0 0.0
2018-Feb-18 11:59N 59°54' E 010°45'0 0.0
2018-Feb-18 11:29N 59°54' E 010°45'0 0.0
2018-Feb-18 10:59N 59°54' E 010°45'0 0.0
2018-Feb-18 10:29N 59°54' E 010°45'0 0.0
2018-Feb-18 09:59N 59°54' E 010°45'0 0.0
2018-Feb-18 09:29N 59°54' E 010°45'0 0.0
2018-Feb-18 08:59N 59°54' E 010°45'0 0.4
2018-Feb-18 08:30N 59°54' E 010°44'612.7
2018-Feb-18 08:00N 59°50' E 010°36'815.3
2018-Feb-18 07:30N 59°42' E 010°36'714.6
2018-Feb-18 07:01N 59°35' E 010°38'815.6
2018-Feb-18 06:31N 59°27' E 010°34'815.8
2018-Feb-18 06:01N 59°19' E 010°36'816.0
2018-Feb-18 05:31N 59°11' E 010°39'815.7
2018-Feb-18 05:00N 59°04' E 010°39'815.6
2018-Feb-18 04:31N 58°56' E 010°38'815.6
2018-Feb-18 04:01N 58°48' E 010°37'917.3
2018-Feb-18 03:31N 58°39' E 010°38'917.2
2018-Feb-18 03:00N 58°31' E 010°39'915.6
2018-Feb-18 02:27N 58°22' E 010°44'1316.1
2018-Feb-18 01:40N 58°11' E 010°51'316.2
2018-Feb-18 01:29N 58°08' E 010°53'816.2
2018-Feb-18 01:00N 58°00' E 010°58'815.8
2018-Feb-18 00:31N 57°53' E 011°03'815.9
2018-Feb-18 00:00N 57°45' E 011°08'816.3
2018-Feb-17 23:31N 57°38' E 011°16'816.8
2018-Feb-17 23:00N 57°31' E 011°24'816.6
2018-Feb-17 22:31N 57°24' E 011°31'816.4
2018-Feb-17 22:01N 57°16' E 011°36'816.4
2018-Feb-17 21:30N 57°08' E 011°40'816.6
2018-Feb-17 21:00N 57°00' E 011°45'5316.2
2018-Feb-17 17:44N 56°13' E 012°28'416.8
2018-Feb-17 17:30N 56°10' E 012°31'816.4
2018-Feb-17 17:00N 56°03' E 012°39'816.1
2018-Feb-17 16:30N 55°55' E 012°44'815.6
2018-Feb-17 16:00N 55°47' E 012°43'612.8
2018-Feb-17 15:30N 55°42' E 012°36'0 0.2
2018-Feb-17 15:00N 55°42' E 012°36'0 0.0
2018-Feb-17 14:30N 55°42' E 012°36'0 0.0
2018-Feb-17 14:00N 55°42' E 012°36'0 0.0
2018-Feb-17 13:30N 55°42' E 012°36'0 0.0
2018-Feb-17 13:00N 55°42' E 012°36'0 0.0
2018-Feb-17 12:30N 55°42' E 012°36'0 0.0
2018-Feb-17 12:00N 55°42' E 012°36'0 0.0
2018-Feb-17 11:30N 55°42' E 012°36'0 0.0
2018-Feb-17 11:00N 55°42' E 012°36'0 0.0
2018-Feb-17 10:30N 55°42' E 012°36'0 0.0
2018-Feb-17 10:00N 55°42' E 012°36'0 0.0
2018-Feb-17 09:30N 55°42' E 012°36'0 0.0
2018-Feb-17 09:00N 55°42' E 012°36'0 0.6
2018-Feb-17 08:30N 55°42' E 012°36'611.3
2018-Feb-17 08:00N 55°47' E 012°42'714.3
2018-Feb-17 07:30N 55°54' E 012°39'815.2
2018-Feb-17 07:00N 56°02' E 012°39'815.8
2018-Feb-17 06:30N 56°08' E 012°30'815.5
2018-Feb-17 06:00N 56°15' E 012°25'815.5
2018-Feb-17 05:30N 56°23' E 012°21'5417.0
2018-Feb-17 02:21N 57°14' E 011°52'617.4
2018-Feb-17 02:00N 57°19' E 011°47'917.8
2018-Feb-17 01:30N 57°27' E 011°38'918.0
2018-Feb-17 01:01N 57°34' E 011°30'917.4
2018-Feb-17 00:30N 57°42' E 011°23'816.6
2018-Feb-17 00:00N 57°50' E 011°17'917.1
2018-Feb-16 23:30N 57°58' E 011°12'815.7
2018-Feb-16 23:00N 58°05' E 011°08'714.7
2018-Feb-16 22:30N 58°12' E 011°04'715.0
2018-Feb-16 22:00N 58°20' E 010°60'815.3
2018-Feb-16 21:30N 58°27' E 010°56'815.3
2018-Feb-16 21:00N 58°34' E 010°52'815.4
2018-Feb-16 20:31N 58°42' E 010°47'815.8
2018-Feb-16 20:00N 58°50' E 010°45'816.3
2018-Feb-16 19:31N 58°58' E 010°42'816.4
2018-Feb-16 19:00N 59°06' E 010°40'816.5
2018-Feb-16 18:30N 59°14' E 010°37'816.6
2018-Feb-16 18:00N 59°22' E 010°34'816.7
2018-Feb-16 17:30N 59°30' E 010°35'816.2
2018-Feb-16 17:00N 59°38' E 010°37'714.3
2018-Feb-16 16:30N 59°45' E 010°33'815.9
2018-Feb-16 16:00N 59°53' E 010°39'3 6.3
2018-Feb-16 15:30N 59°54' E 010°45'0 0.0
2018-Feb-16 15:00N 59°54' E 010°45'0 0.0
2018-Feb-16 14:30N 59°54' E 010°45'0 0.0
2018-Feb-16 14:00N 59°54' E 010°45'0 0.0
2018-Feb-16 13:30N 59°54' E 010°45'0 0.0
2018-Feb-16 13:00N 59°54' E 010°45'0 0.0
2018-Feb-16 12:29N 59°54' E 010°45'0 0.0
2018-Feb-16 11:59N 59°54' E 010°45'0 0.0
2018-Feb-16 11:26N 59°54' E 010°45'0 0.0
2018-Feb-16 10:56N 59°54' E 010°45'0 0.0
2018-Feb-16 10:29N 59°54' E 010°45'0 0.0
2018-Feb-16 09:59N 59°54' E 010°45'0 0.0
2018-Feb-16 09:29N 59°54' E 010°45'0 0.0
2018-Feb-16 08:59N 59°54' E 010°45'2 3.2
2018-Feb-16 08:30N 59°54' E 010°42'713.5
2018-Feb-16 08:01N 59°48' E 010°35'815.2
2018-Feb-16 07:30N 59°41' E 010°37'612.5
2018-Feb-16 07:00N 59°34' E 010°38'815.4
2018-Feb-16 06:30N 59°27' E 010°34'816.1
2018-Feb-16 06:00N 59°19' E 010°36'816.8
2018-Feb-16 05:31N 59°11' E 010°39'816.0
2018-Feb-16 05:00N 59°03' E 010°39'816.1
2018-Feb-16 04:30N 58°55' E 010°38'917.2
2018-Feb-16 04:01N 58°46' E 010°37'816.8
2018-Feb-16 03:30N 58°38' E 010°38'816.6
2018-Feb-16 03:01N 58°30' E 010°40'2316.6
2018-Feb-16 01:38N 58°08' E 010°53'215.9
2018-Feb-16 01:30N 58°06' E 010°54'816.2
2018-Feb-16 01:01N 57°58' E 010°59'816.4
2018-Feb-16 00:30N 57°50' E 011°04'816.4
2018-Feb-16 00:01N 57°43' E 011°10'816.2
2018-Feb-15 23:31N 57°36' E 011°18'816.2
2018-Feb-15 23:00N 57°29' E 011°27'817.0
2018-Feb-15 22:31N 57°22' E 011°33'816.9
2018-Feb-15 22:01N 57°14' E 011°38'816.5
2018-Feb-15 21:30N 57°05' E 011°42'916.8
2018-Feb-15 20:59N 56°57' E 011°46'5016.0
2018-Feb-15 17:54N 56°13' E 012°28'716.8
2018-Feb-15 17:30N 56°07' E 012°33'917.7
2018-Feb-15 17:01N 55°60' E 012°41'816.4
2018-Feb-15 16:31N 55°52' E 012°44'816.1
2018-Feb-15 16:01N 55°44' E 012°40'3 5.8
2018-Feb-15 15:31N 55°42' E 012°36'0 0.0
2018-Feb-15 14:59N 55°42' E 012°36'0 0.0
2018-Feb-15 14:29N 55°42' E 012°36'0 0.0
2018-Feb-15 13:59N 55°42' E 012°36'0 0.0
2018-Feb-15 13:29N 55°42' E 012°36'0 0.0
2018-Feb-15 13:00N 55°42' E 012°36'0 0.0
2018-Feb-15 12:30N 55°42' E 012°36'0 0.0
2018-Feb-15 12:00N 55°42' E 012°36'0 0.0
2018-Feb-15 11:30N 55°42' E 012°36'0 0.0
2018-Feb-15 11:00N 55°42' E 012°36'0 0.0
2018-Feb-15 10:29N 55°42' E 012°36'0 0.0
2018-Feb-15 10:00N 55°42' E 012°36'0 0.0
2018-Feb-15 09:30N 55°42' E 012°36'0 0.0
2018-Feb-15 09:00N 55°42' E 012°36'0 0.6
2018-Feb-15 08:30N 55°42' E 012°36'612.1
2018-Feb-15 08:01N 55°47' E 012°43'714.3
2018-Feb-15 07:31N 55°54' E 012°44'714.7
2018-Feb-15 07:00N 56°01' E 012°40'612.7
2018-Feb-15 06:30N 56°06' E 012°33'713.9
2018-Feb-15 06:01N 56°12' E 012°27'816.4
2018-Feb-15 05:30N 56°20' E 012°22'5617.1
2018-Feb-15 02:13N 57°14' E 011°52'315.9
2018-Feb-15 02:00N 57°17' E 011°49'816.2
2018-Feb-15 01:30N 57°24' E 011°42'816.0
2018-Feb-15 01:00N 57°31' E 011°34'816.4
2018-Feb-15 00:31N 57°38' E 011°27'816.2
2018-Feb-15 00:01N 57°46' E 011°21'816.1
2018-Feb-14 23:30N 57°53' E 011°15'815.6
2018-Feb-14 23:00N 58°01' E 011°11'816.3
2018-Feb-14 22:31N 58°08' E 011°07'714.9
2018-Feb-14 22:00N 58°16' E 011°03'815.3
2018-Feb-14 21:30N 58°23' E 010°59'815.9
2018-Feb-14 21:00N 58°31' E 010°55'815.6
2018-Feb-14 20:30N 58°38' E 010°50'816.1
2018-Feb-14 20:00N 58°46' E 010°46'816.8
2018-Feb-14 19:30N 58°54' E 010°43'817.0
2018-Feb-14 19:00N 59°03' E 010°41'817.0
2018-Feb-14 18:30N 59°11' E 010°38'917.2
2018-Feb-14 18:01N 59°19' E 010°35'816.9
2018-Feb-14 17:30N 59°28' E 010°34'917.2
2018-Feb-14 17:01N 59°36' E 010°38'713.7
2018-Feb-14 16:30N 59°43' E 010°35'815.6
2018-Feb-14 16:00N 59°51' E 010°37'510.8
2018-Feb-14 15:30N 59°54' E 010°45'0 0.0
2018-Feb-14 15:00N 59°54' E 010°45'0 0.0
2018-Feb-14 14:30N 59°54' E 010°45'0 0.0
2018-Feb-14 14:00N 59°54' E 010°45'0 0.0
2018-Feb-14 13:30N 59°54' E 010°45'0 0.0
2018-Feb-14 13:00N 59°54' E 010°45'0 0.0
2018-Feb-14 12:30N 59°54' E 010°45'0 0.0
2018-Feb-14 12:00N 59°54' E 010°45'0 0.0
2018-Feb-14 11:30N 59°54' E 010°45'0 0.0
2018-Feb-14 11:00N 59°54' E 010°45'0 0.0
2018-Feb-14 10:30N 59°54' E 010°45'0 0.0
2018-Feb-14 10:00N 59°54' E 010°45'0 0.0
2018-Feb-14 09:30N 59°54' E 010°45'0 0.0
2018-Feb-14 09:00N 59°54' E 010°45'1 1.1
2018-Feb-14 08:30N 59°54' E 010°44'713.6
2018-Feb-14 08:01N 59°49' E 010°35'714.8
2018-Feb-14 07:30N 59°41' E 010°36'713.9
2018-Feb-14 07:01N 59°35' E 010°38'815.8
2018-Feb-14 06:30N 59°27' E 010°34'815.9
2018-Feb-14 06:00N 59°19' E 010°36'816.3
2018-Feb-14 05:31N 59°11' E 010°39'816.0
2018-Feb-14 05:01N 59°03' E 010°41'816.0
2018-Feb-14 04:30N 58°55' E 010°43'815.7
2018-Feb-14 04:00N 58°47' E 010°44'815.7
2018-Feb-14 03:30N 58°40' E 010°47'816.6
2018-Feb-14 03:00N 58°32' E 010°51'816.4
2018-Feb-14 02:30N 58°24' E 010°56'916.8
2018-Feb-14 02:00N 58°16' E 011°01'816.5
2018-Feb-14 01:31N 58°08' E 011°05'816.5
2018-Feb-14 01:01N 58°00' E 011°10'816.4
2018-Feb-14 00:30N 57°52' E 011°15'815.3
2018-Feb-14 00:01N 57°45' E 011°19'815.9
2018-Feb-13 23:30N 57°37' E 011°23'815.9
2018-Feb-13 23:01N 57°30' E 011°28'816.0
2018-Feb-13 22:30N 57°22' E 011°32'816.4
2018-Feb-13 22:00N 57°14' E 011°37'  
Track history (hours):
 
Tides and Currents Weather Stations Pressure Air Temp Water Temp Dewpoint Dewpoint Depression Visibility Wind Speed Wind Dir Waves Ship Positions

Pearl Of Scandinavia

Last reported at 2018-Feb-23 22:00 UTC. Time now 2018-Feb-23 22:09 UTC.
Position N 57°19' E 011°46'.

Length 176.4 m; beam 34 m; draft 6.215 m.

Type: Ship. MMSI: 219945000.

Date/timePositionNaut miles runAvg speedWind from/ knotsBaromVisibWave heightAir tempDewpointWater temp
2018-Feb-23 22:00N 57°19' E 011°46'816.7
2018-Feb-23 21:30N 57°12' E 011°54'917.2
2018-Feb-23 21:00N 57°04' E 012°00'4916.5
2018-Feb-23 18:02N 56°17' E 012°24'016.8
2018-Feb-23 18:00N 56°16' E 012°24'816.3
2018-Feb-23 17:31N 56°09' E 012°31'816.5
2018-Feb-23 17:01N 56°03' E 012°40'815.9
2018-Feb-23 16:31N 55°55' E 012°45'815.7
2018-Feb-23 16:01N 55°47' E 012°43'612.7
2018-Feb-23 15:30N 55°42' E 012°36'0 0.2
2018-Feb-23 14:59N 55°42' E 012°36'0 0.0
2018-Feb-23 14:29N 55°42' E 012°36'0 0.0
2018-Feb-23 13:59N 55°42' E 012°36'0 0.0
2018-Feb-23 13:29N 55°42' E 012°36'0 0.0
2018-Feb-23 12:59N 55°42' E 012°36'0 0.0
2018-Feb-23 12:29N 55°42' E 012°36'0 0.0
2018-Feb-23 11:59N 55°42' E 012°36'0 0.0
2018-Feb-23 11:29N 55°42' E 012°36'0 0.0
2018-Feb-23 10:59N 55°42' E 012°36'0 0.0
2018-Feb-23 10:29N 55°42' E 012°36'0 0.0
2018-Feb-23 09:59N 55°42' E 012°36'0 0.0
2018-Feb-23 09:29N 55°42' E 012°36'0 0.0
2018-Feb-23 08:59N 55°42' E 012°36'0 0.6
2018-Feb-23 08:30N 55°42' E 012°36'510.6
2018-Feb-23 08:00N 55°47' E 012°41'612.9
2018-Feb-23 07:30N 55°53' E 012°40'713.3
2018-Feb-23 07:01N 55°60' E 012°40'713.4
2018-Feb-23 06:31N 56°06' E 012°34'714.2
2018-Feb-23 06:01N 56°12' E 012°28'714.9
2018-Feb-23 05:31N 56°19' E 012°23'5816.8
2018-Feb-23 02:05N 57°14' E 011°52'117.0
2018-Feb-23 02:01N 57°15' E 011°51'917.0
2018-Feb-23 01:30N 57°22' E 011°42'816.6
2018-Feb-23 01:01N 57°29' E 011°34'816.7
2018-Feb-23 00:31N 57°36' E 011°28'816.6
2018-Feb-23 00:01N 57°44' E 011°21'816.9
2018-Feb-22 23:31N 57°52' E 011°16'816.3
2018-Feb-22 23:00N 57°60' E 011°11'816.3
2018-Feb-22 22:31N 58°07' E 011°07'816.3
2018-Feb-22 22:01N 58°15' E 011°03'816.1
2018-Feb-22 21:30N 58°23' E 010°59'816.3
2018-Feb-22 21:01N 58°31' E 010°54'816.1
2018-Feb-22 20:31N 58°38' E 010°49'816.1
2018-Feb-22 20:01N 58°46' E 010°46'917.0
2018-Feb-22 19:30N 58°55' E 010°43'816.9
2018-Feb-22 19:01N 59°03' E 010°41'816.7
2018-Feb-22 18:31N 59°11' E 010°38'817.0
2018-Feb-22 18:01N 59°20' E 010°35'816.7
2018-Feb-22 17:31N 59°28' E 010°34'816.7
2018-Feb-22 17:01N 59°36' E 010°38'714.6
2018-Feb-22 16:30N 59°43' E 010°35'714.2
2018-Feb-22 16:00N 59°50' E 010°35'612.6
2018-Feb-22 15:31N 59°54' E 010°45'0 0.2
2018-Feb-22 15:01N 59°54' E 010°45'0 0.0
2018-Feb-22 14:30N 59°54' E 010°45'0 0.0
2018-Feb-22 14:00N 59°54' E 010°45'0 0.0
2018-Feb-22 13:30N 59°54' E 010°45'0 0.0
2018-Feb-22 13:00N 59°54' E 010°45'0 0.0
2018-Feb-22 12:30N 59°54' E 010°45'0 0.0
2018-Feb-22 12:00N 59°54' E 010°45'0 0.0
2018-Feb-22 11:30N 59°54' E 010°45'0 0.0
2018-Feb-22 10:59N 59°54' E 010°45'0 0.0
2018-Feb-22 10:30N 59°54' E 010°45'0 0.0
2018-Feb-22 10:00N 59°54' E 010°45'0 0.0
2018-Feb-22 09:30N 59°54' E 010°45'0 0.0
2018-Feb-22 09:00N 59°54' E 010°45'0 0.5
2018-Feb-22 08:30N 59°54' E 010°44'714.1
2018-Feb-22 08:00N 59°49' E 010°35'815.4
2018-Feb-22 07:30N 59°41' E 010°36'713.4
2018-Feb-22 07:00N 59°35' E 010°38'815.1
2018-Feb-22 06:30N 59°27' E 010°34'815.2
2018-Feb-22 06:00N 59°20' E 010°36'815.2
2018-Feb-22 05:30N 59°12' E 010°39'815.3
2018-Feb-22 05:00N 59°05' E 010°41'815.4
2018-Feb-22 04:30N 58°57' E 010°42'815.2
2018-Feb-22 04:00N 58°49' E 010°44'2615.4
2018-Feb-22 02:19N 58°24' E 010°57'1016.3
2018-Feb-22 01:40N 58°14' E 011°03'316.3
2018-Feb-22 01:30N 58°12' E 011°05'816.4
2018-Feb-22 01:00N 58°04' E 011°10'816.6
2018-Feb-22 00:30N 57°56' E 011°15'816.5
2018-Feb-22 00:00N 57°48' E 011°20'816.3
2018-Feb-21 23:30N 57°41' E 011°25'816.0
2018-Feb-21 23:00N 57°33' E 011°31'816.2
2018-Feb-21 22:30N 57°26' E 011°38'816.4
2018-Feb-21 22:00N 57°19' E 011°46'816.4
2018-Feb-21 21:30N 57°12' E 011°54'816.3
2018-Feb-21 21:00N 57°05' E 011°59'5516.4
2018-Feb-21 17:40N 56°12' E 012°28'317.1
2018-Feb-21 17:30N 56°10' E 012°30'917.4
2018-Feb-21 17:00N 56°03' E 012°39'816.4
2018-Feb-21 16:30N 55°55' E 012°44'816.2
2018-Feb-21 16:00N 55°47' E 012°42'610.6
2018-Feb-21 15:25N 55°42' E 012°36'0 0.0
2018-Feb-21 15:00N 55°42' E 012°36'0 0.0
2018-Feb-21 14:30N 55°42' E 012°36'0 0.0
2018-Feb-21 14:00N 55°42' E 012°36'0 0.0
2018-Feb-21 13:30N 55°42' E 012°36'0 0.0
2018-Feb-21 13:00N 55°42' E 012°36'0 0.0
2018-Feb-21 12:30N 55°42' E 012°36'0 0.0
2018-Feb-21 12:00N 55°42' E 012°36'0 0.0
2018-Feb-21 11:30N 55°42' E 012°36'0 0.0
2018-Feb-21 11:00N 55°42' E 012°36'0 0.0
2018-Feb-21 10:30N 55°42' E 012°36'0 0.0
2018-Feb-21 10:00N 55°42' E 012°36'0 0.0
2018-Feb-21 09:30N 55°42' E 012°36'0 0.0
2018-Feb-21 09:00N 55°42' E 012°36'0 0.6
2018-Feb-21 08:31N 55°42' E 012°36'510.0
2018-Feb-21 08:00N 55°46' E 012°41'612.3
2018-Feb-21 07:30N 55°53' E 012°40'612.4
2018-Feb-21 07:00N 55°59' E 012°40'713.2
2018-Feb-21 06:30N 56°05' E 012°36'714.1
2018-Feb-21 06:00N 56°11' E 012°28'714.6
2018-Feb-21 05:30N 56°17' E 012°23'5816.7
2018-Feb-21 02:00N 57°13' E 011°52'815.9
2018-Feb-21 01:30N 57°20' E 011°44'816.0
2018-Feb-21 01:00N 57°26' E 011°36'816.7
2018-Feb-21 00:30N 57°34' E 011°29'917.4
2018-Feb-21 00:00N 57°42' E 011°23'816.8
2018-Feb-20 23:30N 57°50' E 011°17'816.2
2018-Feb-20 23:00N 57°57' E 011°12'816.1
2018-Feb-20 22:30N 58°05' E 011°08'816.0
2018-Feb-20 22:00N 58°13' E 011°04'816.0
2018-Feb-20 21:30N 58°21' E 010°59'816.2
2018-Feb-20 21:00N 58°28' E 010°55'816.3
2018-Feb-20 20:30N 58°36' E 010°51'816.7
2018-Feb-20 20:01N 58°44' E 010°47'917.1
2018-Feb-20 19:30N 58°53' E 010°44'917.4
2018-Feb-20 19:00N 59°01' E 010°41'917.2
2018-Feb-20 18:30N 59°10' E 010°38'917.3
2018-Feb-20 18:00N 59°18' E 010°36'917.2
2018-Feb-20 17:30N 59°27' E 010°33'816.9
2018-Feb-20 17:00N 59°35' E 010°38'815.3
2018-Feb-20 16:30N 59°42' E 010°36'815.3
2018-Feb-20 16:00N 59°50' E 010°35'612.7
2018-Feb-20 15:30N 59°54' E 010°45'0 0.2
2018-Feb-20 15:00N 59°54' E 010°45'0 0.0
2018-Feb-20 14:30N 59°54' E 010°45'0 0.0
2018-Feb-20 14:00N 59°54' E 010°45'0 0.0
2018-Feb-20 13:30N 59°54' E 010°45'0 0.0
2018-Feb-20 13:00N 59°54' E 010°45'0 0.0
2018-Feb-20 12:30N 59°54' E 010°45'0 0.0
2018-Feb-20 12:00N 59°54' E 010°45'0 0.0
2018-Feb-20 11:30N 59°54' E 010°45'0 0.0
2018-Feb-20 11:00N 59°54' E 010°45'0 0.0
2018-Feb-20 10:30N 59°54' E 010°45'0 0.0
2018-Feb-20 10:00N 59°54' E 010°45'0 0.0
2018-Feb-20 09:30N 59°54' E 010°45'0 0.0
2018-Feb-20 09:00N 59°54' E 010°45'0 0.4
2018-Feb-20 08:30N 59°54' E 010°44'713.8
2018-Feb-20 08:00N 59°49' E 010°35'714.9
2018-Feb-20 07:30N 59°42' E 010°36'713.7
2018-Feb-20 07:00N 59°35' E 010°38'815.5
2018-Feb-20 06:30N 59°27' E 010°34'815.7
2018-Feb-20 06:00N 59°20' E 010°36'815.5
2018-Feb-20 05:30N 59°12' E 010°39'815.3
2018-Feb-20 05:00N 59°04' E 010°41'815.5
2018-Feb-20 04:30N 58°57' E 010°42'815.2
2018-Feb-20 04:00N 58°49' E 010°44'714.8
2018-Feb-20 03:30N 58°42' E 010°45'815.6
2018-Feb-20 03:00N 58°34' E 010°50'816.2
2018-Feb-20 02:30N 58°27' E 010°55'916.5
2018-Feb-20 01:59N 58°18' E 011°00'816.1
2018-Feb-20 01:30N 58°11' E 011°05'816.3
2018-Feb-20 01:00N 58°03' E 011°10'816.5
2018-Feb-20 00:30N 57°56' E 011°15'816.3
2018-Feb-20 00:00N 57°48' E 011°20'816.2
2018-Feb-19 23:30N 57°40' E 011°26'816.1
2018-Feb-19 23:00N 57°33' E 011°31'815.7
2018-Feb-19 22:30N 57°26' E 011°38'815.9
2018-Feb-19 22:00N 57°19' E 011°46'816.4
2018-Feb-19 21:30N 57°12' E 011°54'816.1
2018-Feb-19 21:00N 57°05' E 011°59'5216.3
2018-Feb-19 17:47N 56°15' E 012°26'517.5
2018-Feb-19 17:30N 56°10' E 012°29'918.4
2018-Feb-19 17:00N 56°03' E 012°40'917.5
2018-Feb-19 16:30N 55°55' E 012°45'816.4
2018-Feb-19 16:00N 55°47' E 012°42'611.0
2018-Feb-19 15:31N 55°42' E 012°36'0 0.0
2018-Feb-19 15:00N 55°42' E 012°36'0 0.0
2018-Feb-19 14:30N 55°42' E 012°36'0 0.0
2018-Feb-19 14:00N 55°42' E 012°36'0 0.0
2018-Feb-19 13:30N 55°42' E 012°36'0 0.0
2018-Feb-19 13:00N 55°42' E 012°36'0 0.0
2018-Feb-19 12:30N 55°42' E 012°36'0 0.0
2018-Feb-19 12:00N 55°42' E 012°36'0 0.0
2018-Feb-19 11:30N 55°42' E 012°36'0 0.0
2018-Feb-19 11:00N 55°42' E 012°36'0 0.0
2018-Feb-19 10:30N 55°42' E 012°36'0 0.0
2018-Feb-19 10:00N 55°42' E 012°36'0 0.0
2018-Feb-19 09:30N 55°42' E 012°36'0 0.0
2018-Feb-19 09:00N 55°42' E 012°36'0 0.7
2018-Feb-19 08:30N 55°42' E 012°36'510.6
2018-Feb-19 08:00N 55°47' E 012°42'713.8
2018-Feb-19 07:30N 55°54' E 012°40'714.2
2018-Feb-19 07:00N 56°01' E 012°40'713.8
2018-Feb-19 06:30N 56°06' E 012°33'714.7
2018-Feb-19 06:00N 56°13' E 012°27'815.5
2018-Feb-19 05:30N 56°20' E 012°22'816.2
2018-Feb-19 04:59N 56°28' E 012°18'4616.7
2018-Feb-19 02:12N 57°13' E 011°53'316.4
2018-Feb-19 02:00N 57°15' E 011°51'816.6
2018-Feb-19 01:30N 57°23' E 011°43'817.0
2018-Feb-19 01:00N 57°30' E 011°36'816.8
2018-Feb-19 00:31N 57°37' E 011°28'816.7
2018-Feb-19 00:00N 57°45' E 011°21'816.7
2018-Feb-18 23:30N 57°53' E 011°15'816.8
2018-Feb-18 23:00N 58°01' E 011°11'816.2
2018-Feb-18 22:30N 58°08' E 011°06'816.2
2018-Feb-18 22:00N 58°16' E 011°02'816.4
2018-Feb-18 21:31N 58°24' E 010°57'815.1
2018-Feb-18 21:00N 58°31' E 010°53'816.1
2018-Feb-18 20:30N 58°39' E 010°49'816.4
2018-Feb-18 20:00N 58°47' E 010°45'917.3
2018-Feb-18 19:30N 58°56' E 010°43'917.2
2018-Feb-18 19:00N 59°04' E 010°40'917.1
2018-Feb-18 18:30N 59°12' E 010°37'917.1
2018-Feb-18 18:00N 59°21' E 010°35'816.6
2018-Feb-18 17:30N 59°29' E 010°34'816.3
2018-Feb-18 17:00N 59°37' E 010°37'815.0
2018-Feb-18 16:30N 59°44' E 010°33'816.1
2018-Feb-18 16:00N 59°52' E 010°38'4 8.0
2018-Feb-18 15:30N 59°54' E 010°45'0 0.0
2018-Feb-18 14:59N 59°54' E 010°45'0 0.0
2018-Feb-18 14:29N 59°54' E 010°45'0 0.0
2018-Feb-18 13:59N 59°54' E 010°45'0 0.0
2018-Feb-18 13:29N 59°54' E 010°45'0 0.0
2018-Feb-18 12:59N 59°54' E 010°45'0 0.0
2018-Feb-18 12:29N 59°54' E 010°45'0 0.0
2018-Feb-18 11:59N 59°54' E 010°45'0 0.0
2018-Feb-18 11:29N 59°54' E 010°45'0 0.0
2018-Feb-18 10:59N 59°54' E 010°45'0 0.0
2018-Feb-18 10:29N 59°54' E 010°45'0 0.0
2018-Feb-18 09:59N 59°54' E 010°45'0 0.0
2018-Feb-18 09:29N 59°54' E 010°45'0 0.0
2018-Feb-18 08:59N 59°54' E 010°45'0 0.4
2018-Feb-18 08:30N 59°54' E 010°44'612.7
2018-Feb-18 08:00N 59°50' E 010°36'815.3
2018-Feb-18 07:30N 59°42' E 010°36'714.6
2018-Feb-18 07:01N 59°35' E 010°38'815.6
2018-Feb-18 06:31N 59°27' E 010°34'815.8
2018-Feb-18 06:01N 59°19' E 010°36'816.0
2018-Feb-18 05:31N 59°11' E 010°39'815.7
2018-Feb-18 05:00N 59°04' E 010°39'815.6
2018-Feb-18 04:31N 58°56' E 010°38'815.6
2018-Feb-18 04:01N 58°48' E 010°37'917.3
2018-Feb-18 03:31N 58°39' E 010°38'917.2
2018-Feb-18 03:00N 58°31' E 010°39'915.6
2018-Feb-18 02:27N 58°22' E 010°44'1316.1
2018-Feb-18 01:40N 58°11' E 010°51'316.2
2018-Feb-18 01:29N 58°08' E 010°53'816.2
2018-Feb-18 01:00N 58°00' E 010°58'815.8
2018-Feb-18 00:31N 57°53' E 011°03'815.9
2018-Feb-18 00:00N 57°45' E 011°08'816.3
2018-Feb-17 23:31N 57°38' E 011°16'816.8
2018-Feb-17 23:00N 57°31' E 011°24'816.6
2018-Feb-17 22:31N 57°24' E 011°31'816.4
2018-Feb-17 22:01N 57°16' E 011°36'816.4
2018-Feb-17 21:30N 57°08' E 011°40'816.6
2018-Feb-17 21:00N 57°00' E 011°45'5316.2
2018-Feb-17 17:44N 56°13' E 012°28'416.8
2018-Feb-17 17:30N 56°10' E 012°31'816.4
2018-Feb-17 17:00N 56°03' E 012°39'816.1
2018-Feb-17 16:30N 55°55' E 012°44'815.6
2018-Feb-17 16:00N 55°47' E 012°43'612.8
2018-Feb-17 15:30N 55°42' E 012°36'0 0.2
2018-Feb-17 15:00N 55°42' E 012°36'0 0.0
2018-Feb-17 14:30N 55°42' E 012°36'0 0.0
2018-Feb-17 14:00N 55°42' E 012°36'0 0.0
2018-Feb-17 13:30N 55°42' E 012°36'0 0.0
2018-Feb-17 13:00N 55°42' E 012°36'0 0.0
2018-Feb-17 12:30N 55°42' E 012°36'0 0.0
2018-Feb-17 12:00N 55°42' E 012°36'0 0.0
2018-Feb-17 11:30N 55°42' E 012°36'0 0.0
2018-Feb-17 11:00N 55°42' E 012°36'0 0.0
2018-Feb-17 10:30N 55°42' E 012°36'0 0.0
2018-Feb-17 10:00N 55°42' E 012°36'0 0.0
2018-Feb-17 09:30N 55°42' E 012°36'0 0.0
2018-Feb-17 09:00N 55°42' E 012°36'0 0.6
2018-Feb-17 08:30N 55°42' E 012°36'611.3
2018-Feb-17 08:00N 55°47' E 012°42'714.3
2018-Feb-17 07:30N 55°54' E 012°39'815.2
2018-Feb-17 07:00N 56°02' E 012°39'815.8
2018-Feb-17 06:30N 56°08' E 012°30'815.5
2018-Feb-17 06:00N 56°15' E 012°25'815.5
2018-Feb-17 05:30N 56°23' E 012°21'5417.0
2018-Feb-17 02:21N 57°14' E 011°52'617.4
2018-Feb-17 02:00N 57°19' E 011°47'917.8
2018-Feb-17 01:30N 57°27' E 011°38'918.0
2018-Feb-17 01:01N 57°34' E 011°30'917.4
2018-Feb-17 00:30N 57°42' E 011°23'816.6
2018-Feb-17 00:00N 57°50' E 011°17'917.1
2018-Feb-16 23:30N 57°58' E 011°12'815.7
2018-Feb-16 23:00N 58°05' E 011°08'714.7
2018-Feb-16 22:30N 58°12' E 011°04'715.0
2018-Feb-16 22:00N 58°20' E 010°60'815.3
2018-Feb-16 21:30N 58°27' E 010°56'815.3
2018-Feb-16 21:00N 58°34' E 010°52'815.4
2018-Feb-16 20:31N 58°42' E 010°47'815.8
2018-Feb-16 20:00N 58°50' E 010°45'816.3
2018-Feb-16 19:31N 58°58' E 010°42'816.4
2018-Feb-16 19:00N 59°06' E 010°40'816.5
2018-Feb-16 18:30N 59°14' E 010°37'816.6
2018-Feb-16 18:00N 59°22' E 010°34'816.7
2018-Feb-16 17:30N 59°30' E 010°35'816.2
2018-Feb-16 17:00N 59°38' E 010°37'714.3
2018-Feb-16 16:30N 59°45' E 010°33'815.9
2018-Feb-16 16:00N 59°53' E 010°39'3 6.3
2018-Feb-16 15:30N 59°54' E 010°45'0 0.0
2018-Feb-16 15:00N 59°54' E 010°45'0 0.0
2018-Feb-16 14:30N 59°54' E 010°45'0 0.0
2018-Feb-16 14:00N 59°54' E 010°45'0 0.0
2018-Feb-16 13:30N 59°54' E 010°45'0 0.0
2018-Feb-16 13:00N 59°54' E 010°45'0 0.0
2018-Feb-16 12:29N 59°54' E 010°45'0 0.0
2018-Feb-16 11:59N 59°54' E 010°45'0 0.0
2018-Feb-16 11:26N 59°54' E 010°45'0 0.0
2018-Feb-16 10:56N 59°54' E 010°45'0 0.0
2018-Feb-16 10:29N 59°54' E 010°45'0 0.0
2018-Feb-16 09:59N 59°54' E 010°45'0 0.0
2018-Feb-16 09:29N 59°54' E 010°45'0 0.0
2018-Feb-16 08:59N 59°54' E 010°45'2 3.2
2018-Feb-16 08:30N 59°54' E 010°42'713.5
2018-Feb-16 08:01N 59°48' E 010°35'815.2
2018-Feb-16 07:30N 59°41' E 010°37'612.5
2018-Feb-16 07:00N 59°34' E 010°38'815.4
2018-Feb-16 06:30N 59°27' E 010°34'816.1
2018-Feb-16 06:00N 59°19' E 010°36'816.8
2018-Feb-16 05:31N 59°11' E 010°39'816.0
2018-Feb-16 05:00N 59°03' E 010°39'816.1
2018-Feb-16 04:30N 58°55' E 010°38'917.2
2018-Feb-16 04:01N 58°46' E 010°37'816.8
2018-Feb-16 03:30N 58°38' E 010°38'816.6
2018-Feb-16 03:01N 58°30' E 010°40'2316.6
2018-Feb-16 01:38N 58°08' E 010°53'215.9
2018-Feb-16 01:30N 58°06' E 010°54'816.2
2018-Feb-16 01:01N 57°58' E 010°59'816.4
2018-Feb-16 00:30N 57°50' E 011°04'816.4
2018-Feb-16 00:01N 57°43' E 011°10'816.2
2018-Feb-15 23:31N 57°36' E 011°18'816.2
2018-Feb-15 23:00N 57°29' E 011°27'817.0
2018-Feb-15 22:31N 57°22' E 011°33'816.9
2018-Feb-15 22:01N 57°14' E 011°38'816.5
2018-Feb-15 21:30N 57°05' E 011°42'916.8
2018-Feb-15 20:59N 56°57' E 011°46'5016.0
2018-Feb-15 17:54N 56°13' E 012°28'716.8
2018-Feb-15 17:30N 56°07' E 012°33'917.7
2018-Feb-15 17:01N 55°60' E 012°41'816.4
2018-Feb-15 16:31N 55°52' E 012°44'816.1
2018-Feb-15 16:01N 55°44' E 012°40'3 5.8
2018-Feb-15 15:31N 55°42' E 012°36'0 0.0
2018-Feb-15 14:59N 55°42' E 012°36'0 0.0
2018-Feb-15 14:29N 55°42' E 012°36'0 0.0
2018-Feb-15 13:59N 55°42' E 012°36'0 0.0
2018-Feb-15 13:29N 55°42' E 012°36'0 0.0
2018-Feb-15 13:00N 55°42' E 012°36'0 0.0
2018-Feb-15 12:30N 55°42' E 012°36'0 0.0
2018-Feb-15 12:00N 55°42' E 012°36'0 0.0
2018-Feb-15 11:30N 55°42' E 012°36'0 0.0
2018-Feb-15 11:00N 55°42' E 012°36'0 0.0
2018-Feb-15 10:29N 55°42' E 012°36'0 0.0
2018-Feb-15 10:00N 55°42' E 012°36'0 0.0
2018-Feb-15 09:30N 55°42' E 012°36'0 0.0
2018-Feb-15 09:00N 55°42' E 012°36'0 0.6
2018-Feb-15 08:30N 55°42' E 012°36'612.1
2018-Feb-15 08:01N 55°47' E 012°43'714.3
2018-Feb-15 07:31N 55°54' E 012°44'714.7
2018-Feb-15 07:00N 56°01' E 012°40'612.7
2018-Feb-15 06:30N 56°06' E 012°33'713.9
2018-Feb-15 06:01N 56°12' E 012°27'816.4
2018-Feb-15 05:30N 56°20' E 012°22'5617.1
2018-Feb-15 02:13N 57°14' E 011°52'315.9
2018-Feb-15 02:00N 57°17' E 011°49'816.2
2018-Feb-15 01:30N 57°24' E 011°42'816.0
2018-Feb-15 01:00N 57°31' E 011°34'816.4
2018-Feb-15 00:31N 57°38' E 011°27'816.2
2018-Feb-15 00:01N 57°46' E 011°21'816.1
2018-Feb-14 23:30N 57°53' E 011°15'815.6
2018-Feb-14 23:00N 58°01' E 011°11'816.3
2018-Feb-14 22:31N 58°08' E 011°07'714.9
2018-Feb-14 22:00N 58°16' E 011°03'815.3
2018-Feb-14 21:30N 58°23' E 010°59'815.9
2018-Feb-14 21:00N 58°31' E 010°55'815.6
2018-Feb-14 20:30N 58°38' E 010°50'816.1
2018-Feb-14 20:00N 58°46' E 010°46'816.8
2018-Feb-14 19:30N 58°54' E 010°43'817.0
2018-Feb-14 19:00N 59°03' E 010°41'817.0
2018-Feb-14 18:30N 59°11' E 010°38'917.2
2018-Feb-14 18:01N 59°19' E 010°35'816.9
2018-Feb-14 17:30N 59°28' E 010°34'917.2
2018-Feb-14 17:01N 59°36' E 010°38'713.7
2018-Feb-14 16:30N 59°43' E 010°35'815.6
2018-Feb-14 16:00N 59°51' E 010°37'510.8
2018-Feb-14 15:30N 59°54' E 010°45'0 0.0
2018-Feb-14 15:00N 59°54' E 010°45'0 0.0
2018-Feb-14 14:30N 59°54' E 010°45'0 0.0
2018-Feb-14 14:00N 59°54' E 010°45'0 0.0
2018-Feb-14 13:30N 59°54' E 010°45'0 0.0
2018-Feb-14 13:00N 59°54' E 010°45'0 0.0
2018-Feb-14 12:30N 59°54' E 010°45'0 0.0
2018-Feb-14 12:00N 59°54' E 010°45'0 0.0
2018-Feb-14 11:30N 59°54' E 010°45'0 0.0
2018-Feb-14 11:00N 59°54' E 010°45'0 0.0
2018-Feb-14 10:30N 59°54' E 010°45'0 0.0
2018-Feb-14 10:00N 59°54' E 010°45'0 0.0
2018-Feb-14 09:30N 59°54' E 010°45'0 0.0
2018-Feb-14 09:00N 59°54' E 010°45'1 1.1
2018-Feb-14 08:30N 59°54' E 010°44'713.6
2018-Feb-14 08:01N 59°49' E 010°35'714.8
2018-Feb-14 07:30N 59°41' E 010°36'713.9
2018-Feb-14 07:01N 59°35' E 010°38'815.8
2018-Feb-14 06:30N 59°27' E 010°34'815.9
2018-Feb-14 06:00N 59°19' E 010°36'816.3
2018-Feb-14 05:31N 59°11' E 010°39'816.0
2018-Feb-14 05:01N 59°03' E 010°41'816.0
2018-Feb-14 04:30N 58°55' E 010°43'815.7
2018-Feb-14 04:00N 58°47' E 010°44'815.7
2018-Feb-14 03:30N 58°40' E 010°47'816.6
2018-Feb-14 03:00N 58°32' E 010°51'816.4
2018-Feb-14 02:30N 58°24' E 010°56'916.8
2018-Feb-14 02:00N 58°16' E 011°01'816.5
2018-Feb-14 01:31N 58°08' E 011°05'816.5
2018-Feb-14 01:01N 58°00' E 011°10'816.4
2018-Feb-14 00:30N 57°52' E 011°15'815.3
2018-Feb-14 00:01N 57°45' E 011°19'815.9
2018-Feb-13 23:30N 57°37' E 011°23'815.9
2018-Feb-13 23:01N 57°30' E 011°28'816.0
2018-Feb-13 22:30N 57°22' E 011°32'816.4
2018-Feb-13 22:00N 57°14' E 011°37'  

Dump ship's entire track history